Impacts TAF Board
For situational awareness. Not to be used for flight planning purposes.
IDs:

KMSP - Minneapolis-St Paul, MN, US

Issued at 1135 UTC 16 Feb 2019
Updated at 1507 UTC 16 Feb 2019
Potential Impact None Slight Moderate High
Time1453Z 16/16Z 16/17Z 16/18Z 16/19Z 16/20Z 16/21Z 16/22Z 16/23Z 17/00Z 17/01Z 17/02Z 17/03Z 17/04Z>>
Type OBS PRVL PRVL PRVL PRVL PRVL PRVL PRVL PRVL PRVL PRVL PRVL PRVL PRVL
VIS 9 >6 >6 >6 >6 >6 >6 >6 >6 >6 >6 >6 >6 >6
CIG 180 200 200 200 200 200 200 200 200 200 200 200 200 200
Cover BKN BKN BKN BKN BKN BKN BKN BKN BKN BKN BKN BKN BKN BKN
FltCat VFR VFR VFR VFR VFR VFR VFR VFR VFR VFR VFR VFR VFR VFR
WX -- -- -- -- -- -- -- -- -- -- -- -- -- --
WDir VRB 70 70 70 70 70 70 70 70 70 70 70 70 70
WSpd 0 4 4 4 4 4 4 4 4 4 4 4 4 4
WGst -- -- -- -- -- -- -- -- -- -- -- -- -- --
Raw TAF
KMSP 161135Z 1612/1718 07004KT P6SM BKN200
  FM170500 09005KT P6SM BKN050
  FM170800 08006KT 6SM -SHSN OVC030
  FM171200 07007KT 3SM -SN OVC025


Raw METAR
KMSP 161453Z 00000KT 9SM BKN180 M16/M18 A3017 RMK AO2 SLP237 I3000 T11611183 53001
KMSP 161353Z 00000KT 9SM BKN180 M17/M18 A3017 RMK AO2 SLP238 T11671183
KMSP 161253Z 00000KT 10SM BKN170 M18/M19 A3016 RMK AO2 SLP234 I1000 T11781194

METAR Board
Radar Display
Forecast Discussion
For situational awareness. Not to be used for flight planning purposes.